No particular awareness of the weather is required.    There are no Weather-warnings

Nearby METAR Reports

  
ENBR - Bergen/Flesland, Norway
Distance from station: E 6km
Updated: 21-01-2018 22:50
Partly Cloudy
Partly Cloudy  
 Wind from SE
Wind: SE 13 km/h
Temperature:  1°C
Wind Chill:  -3°C
Dew Point:  -7°C
Humidity:  56%
Barometer:  1008 hPa
Clouds:  Partly Cloudy
Visibility:  10 km
Cloud details:  Few Clouds 762 m
Partly Cloudy 1951 m
2018/01/21 21:50 ENBR 212150Z 14007KT 9999 FEW025 SCT064 01/M07 Q1008 RMK WIND 1200FT 13022KT
ENSO - Stord/Soerstokke, Norway
Distance from station: SSE 56km
Updated: 21-01-2018 19:20
NOT Current
Partly Cloudy
Partly Cloudy  
 Wind from ESE
Wind: ESE 17 km/h
Temperature:  2°C
Wind Chill:  -2°C
Dew Point:  -5°C
Humidity:  60%
Barometer:  1010 hPa
Clouds:  Partly Cloudy
Visibility:  10 km
Cloud details:  Partly Cloudy 975 m
2018/01/21 18:20 ENSO 211820Z 12009KT 9999 SCT032 02/M05 Q1010
ENQA - Troll-A Heli, Norway
Distance from station: WNW 87km
Updated: 21-01-2018 22:50
Mostly Cloudy
Mostly Cloudy  
 Wind from SSE
Wind: SSE 76 km/h
Temperature:  4°C
Wind Chill:  -4°C
Dew Point:  0°C
Humidity:  75%
Barometer:  1005 hPa
Clouds:  Mostly Cloudy
Visibility:  16 miles
Cloud details:  Mostly Cloudy 640 m
2018/01/21 21:50 ENQA 212150Z AUTO 16041KT 9999NDV BKN021/// 04/00 Q1005 W05/S5
ENHD - Haugesund/Karmoy, Norway
Distance from station: S 103km
Updated: 21-01-2018 22:50
Mostly Cloudy
Mostly Cloudy  
 Wind from SE
Wind: SE 33 km/h
Temperature:  2°C
Wind Chill:  -4°C
Dew Point:  -3°C
Humidity:  70%
Barometer:  1008 hPa
Clouds:  Mostly Cloudy
Visibility:  10 km
Cloud details:  Mostly Cloudy 1219 m
2018/01/21 21:50 ENHD 212150Z 13018KT 9999 BKN040 02/M03 Q1008
ENQC - Troll-C Heli, Norway
Distance from station: NW 106km
Updated: 21-01-2018 22:50
Mostly Cloudy
Mostly Cloudy  
 Wind from SE
Wind: SE 72 km/h
Temperature:  4°C
Wind Chill:  -4°C
Dew Point:  0°C
Humidity:  75%
Barometer:  1005 hPa
Clouds:  Mostly Cloudy
Visibility:  16 miles
Cloud details:  Mostly Cloudy 610 m
2018/01/21 21:50 ENQC 212150Z AUTO 14039KT 9999NDV BKN020/// 04/00 Q1005 W///S5
ENOA - Oseberg, Norway
Distance from station: WNW 128km
Updated: 21-01-2018 22:50
Mostly Cloudy
Mostly Cloudy  
 Wind from SSE
Wind: SSE 72 km/h
Temperature:  4°C
Wind Chill:  -4°C
Dew Point:  1°C
Humidity:  81%
Barometer:  1004 hPa
Clouds:  Mostly Cloudy
Visibility:  10 km
Cloud details:  Mostly Cloudy 457 m
2018/01/21 21:50 ENOA 212150Z 16039KT 9999 BKN015 04/01 Q1004 RESHRA W///S5
ENBL - Forde/Bringeland, Norway
Distance from station: NNE 130km
Updated: 21-01-2018 22:20
Few Clouds
Few Clouds  
 Wind from varies
Wind: varies 4 km/h
Temperature:  -4°C
Dew Point:  -10°C
Humidity:  63%
Barometer:  1008 hPa
Clouds:  Few Clouds
Visibility:  10 km
Cloud details:  Few Clouds 1280 m
2018/01/21 21:20 ENBL 212120Z VRB02KT 9999 FEW042 M04/M10 Q1008
ENFL - Floro, Norway
Distance from station: N 144km
Updated: 21-01-2018 22:50
Overcast
Overcast  
 Wind from ESE
Wind: ESE 28 km/h
Temperature:  3°C
Wind Chill:  -3°C
Dew Point:  -6°C
Humidity:  52%
Barometer:  1008 hPa
Clouds:  Overcast
Visibility:  16 miles
Cloud details:  Overcast 1158 m
2018/01/21 21:50 ENFL 212150Z AUTO 12015KT 9999NDV OVC038/// 03/M06 Q1008
ENSG - Sogndal/Haukasen, Norway
Distance from station: NE 145km
Updated: 21-01-2018 20:50
NOT Current
Few Clouds
Few Clouds  
 Wind from E
Wind: E 7 km/h
Temperature:  -9°C
Wind Chill:  -13°C
Dew Point:  -9°C
Humidity:  100%
Barometer:  1009 hPa
Clouds:  Few Clouds
Visibility:  10 km
Cloud details:  Few Clouds 1372 m
2018/01/21 19:50 ENSG 211950Z 08004KT 9999 FEW045 M09/M09 Q1009 RMK WIND 3806FT 13004KT
ENZV - Stavanger/Sola(A, Norway
Distance from station: S 159km
Updated: 21-01-2018 22:50
Few Clouds
Few Clouds  
 Wind from SE
Wind: SE 30 km/h
Temperature:  2°C
Wind Chill:  -3°C
Dew Point:  -3°C
Humidity:  70%
Barometer:  1009 hPa
Clouds:  Few Clouds
Visibility:  10 km
Cloud details:  Few Clouds 1219 m
2018/01/21 21:50 ENZV 212150Z 13016KT 9999 FEW040 02/M03 Q1009
ENHM - Heimdal Oilp, Norway
Distance from station: WSW 179km
Updated: 21-01-2018 22:50
Few Clouds
Few Clouds  
 Wind from SSE
Wind: SSE 61 km/h
Temperature:  5°C
Wind Chill:  -2°C
Dew Point:  1°C
Humidity:  76%
Barometer:  1002 hPa
Clouds:  Few Clouds
Visibility:  16 miles
Cloud details:  Few Clouds 975 m
2018/01/21 21:50 ENHM 212150Z AUTO 15033KT 9999NDV FEW032/// 05/01 Q1002 W07/S4
ENSD - Sandane/Anda, Norway
Distance from station: NNE 180km
Updated: 21-01-2018 20:50
NOT Current
Few Clouds
Few Clouds  
 Wind from SE
Wind: SE 9 km/h
Temperature:  -1°C
Wind Chill:  -4°C
Dew Point:  -7°C
Humidity:  64%
Barometer:  1010 hPa
Clouds:  Few Clouds
Visibility:  10 km
Cloud details:  Few Clouds 2286 m
2018/01/21 19:50 ENSD 211950Z 14005KT 9999 FEW075 M01/M07 Q1010 RMK WIND 1138FT 08007KT

Script developed by  Saratoga-weather.org Adapted for the template by  Weerstation Leuven